sensor_id;sensor_type;location;lat;lon;timestamp;P1;durP1;ratioP1;P2;durP2;ratioP2
35074;SDS011;21260;34.984;32.490;2022-07-06T00:02:21;4.97;;;2.53;;
35074;SDS011;21260;34.984;32.490;2022-07-06T00:04:47;7.73;;;2.30;;
35074;SDS011;21260;34.984;32.490;2022-07-06T00:07:14;4.77;;;2.07;;
35074;SDS011;21260;34.984;32.490;2022-07-06T00:09:40;5.57;;;2.33;;
35074;SDS011;21260;34.984;32.490;2022-07-06T00:12:07;4.07;;;2.30;;
35074;SDS011;21260;34.984;32.490;2022-07-06T00:14:35;8.27;;;2.30;;
35074;SDS011;21260;34.984;32.490;2022-07-06T00:17:01;3.50;;;2.00;;
35074;SDS011;21260;34.984;32.490;2022-07-06T00:19:28;6.37;;;2.00;;
35074;SDS011;21260;34.984;32.490;2022-07-06T00:21:54;5.40;;;2.20;;
35074;SDS011;21260;34.984;32.490;2022-07-06T00:24:21;3.50;;;2.10;;
35074;SDS011;21260;34.984;32.490;2022-07-06T00:26:47;6.53;;;2.30;;
35074;SDS011;21260;34.984;32.490;2022-07-06T00:29:14;4.00;;;2.00;;
35074;SDS011;21260;34.984;32.490;2022-07-06T00:31:40;5.40;;;2.07;;
35074;SDS011;21260;34.984;32.490;2022-07-06T00:34:07;5.33;;;2.07;;
35074;SDS011;21260;34.984;32.490;2022-07-06T00:36:34;4.80;;;2.13;;
35074;SDS011;21260;34.984;32.490;2022-07-06T00:39:00;2.87;;;2.00;;
35074;SDS011;21260;34.984;32.490;2022-07-06T00:41:26;3.67;;;2.30;;
35074;SDS011;21260;34.984;32.490;2022-07-06T00:43:54;3.87;;;2.20;;
35074;SDS011;21260;34.984;32.490;2022-07-06T00:46:23;5.13;;;2.10;;
35074;SDS011;21260;34.984;32.490;2022-07-06T00:48:57;5.57;;;2.27;;
35074;SDS011;21260;34.984;32.490;2022-07-06T00:51:25;3.73;;;2.30;;
35074;SDS011;21260;34.984;32.490;2022-07-06T00:54:02;4.27;;;2.30;;
35074;SDS011;21260;34.984;32.490;2022-07-06T00:56:31;2.90;;;2.10;;
35074;SDS011;21260;34.984;32.490;2022-07-06T00:59:00;4.60;;;2.47;;
35074;SDS011;21260;34.984;32.490;2022-07-06T01:01:27;4.47;;;2.30;;
35074;SDS011;21260;34.984;32.490;2022-07-06T01:03:54;5.00;;;2.47;;
35074;SDS011;21260;34.984;32.490;2022-07-06T01:06:21;4.77;;;2.30;;
35074;SDS011;21260;34.984;32.490;2022-07-06T01:08:48;6.67;;;2.13;;
35074;SDS011;21260;34.984;32.490;2022-07-06T01:11:16;4.83;;;2.10;;
35074;SDS011;21260;34.984;32.490;2022-07-06T01:13:44;5.20;;;2.73;;
35074;SDS011;21260;34.984;32.490;2022-07-06T01:16:13;4.83;;;2.30;;
35074;SDS011;21260;34.984;32.490;2022-07-06T01:18:39;4.90;;;2.40;;
35074;SDS011;21260;34.984;32.490;2022-07-06T01:21:08;4.07;;;2.27;;
35074;SDS011;21260;34.984;32.490;2022-07-06T01:23:48;6.67;;;2.50;;
35074;SDS011;21260;34.984;32.490;2022-07-06T01:26:15;7.87;;;2.53;;
35074;SDS011;21260;34.984;32.490;2022-07-06T01:28:44;4.33;;;2.30;;
35074;SDS011;21260;34.984;32.490;2022-07-06T01:31:23;3.27;;;2.20;;
35074;SDS011;21260;34.984;32.490;2022-07-06T01:33:52;5.87;;;2.70;;
35074;SDS011;21260;34.984;32.490;2022-07-06T01:36:21;3.67;;;2.20;;
35074;SDS011;21260;34.984;32.490;2022-07-06T01:38:49;3.93;;;2.33;;
35074;SDS011;21260;34.984;32.490;2022-07-06T01:41:17;12.53;;;2.67;;
35074;SDS011;21260;34.984;32.490;2022-07-06T01:43:45;4.20;;;2.30;;
35074;SDS011;21260;34.984;32.490;2022-07-06T01:46:11;3.87;;;2.00;;
35074;SDS011;21260;34.984;32.490;2022-07-06T01:48:38;3.60;;;2.23;;
35074;SDS011;21260;34.984;32.490;2022-07-06T01:51:05;4.30;;;1.63;;
35074;SDS011;21260;34.984;32.490;2022-07-06T01:53:33;2.90;;;1.93;;
35074;SDS011;21260;34.984;32.490;2022-07-06T01:56:00;2.93;;;1.90;;
35074;SDS011;21260;34.984;32.490;2022-07-06T01:58:26;2.53;;;1.67;;
35074;SDS011;21260;34.984;32.490;2022-07-06T02:00:53;4.90;;;1.90;;
35074;SDS011;21260;34.984;32.490;2022-07-06T02:03:21;3.27;;;2.20;;
35074;SDS011;21260;34.984;32.490;2022-07-06T02:05:47;6.13;;;2.00;;
35074;SDS011;21260;34.984;32.490;2022-07-06T02:08:14;2.80;;;2.13;;
35074;SDS011;21260;34.984;32.490;2022-07-06T02:10:41;3.33;;;2.00;;
35074;SDS011;21260;34.984;32.490;2022-07-06T02:13:08;2.00;;;1.80;;
35074;SDS011;21260;34.984;32.490;2022-07-06T02:15:34;2.80;;;1.70;;
35074;SDS011;21260;34.984;32.490;2022-07-06T02:18:01;5.20;;;1.80;;
35074;SDS011;21260;34.984;32.490;2022-07-06T02:20:27;7.00;;;2.00;;
35074;SDS011;21260;34.984;32.490;2022-07-06T02:22:53;5.43;;;2.13;;
35074;SDS011;21260;34.984;32.490;2022-07-06T02:25:22;3.10;;;1.90;;
35074;SDS011;21260;34.984;32.490;2022-07-06T02:27:48;4.33;;;1.80;;
35074;SDS011;21260;34.984;32.490;2022-07-06T02:30:14;4.00;;;2.07;;
35074;SDS011;21260;34.984;32.490;2022-07-06T02:32:41;6.90;;;2.20;;
35074;SDS011;21260;34.984;32.490;2022-07-06T02:35:08;3.73;;;2.17;;
35074;SDS011;21260;34.984;32.490;2022-07-06T02:37:35;3.80;;;1.73;;
35074;SDS011;21260;34.984;32.490;2022-07-06T02:40:03;3.07;;;2.03;;
35074;SDS011;21260;34.984;32.490;2022-07-06T02:42:30;2.73;;;1.80;;
35074;SDS011;21260;34.984;32.490;2022-07-06T02:44:57;5.67;;;1.93;;
35074;SDS011;21260;34.984;32.490;2022-07-06T02:47:24;4.03;;;2.00;;
35074;SDS011;21260;34.984;32.490;2022-07-06T02:49:51;4.43;;;2.20;;
35074;SDS011;21260;34.984;32.490;2022-07-06T02:52:18;8.80;;;2.07;;
35074;SDS011;21260;34.984;32.490;2022-07-06T02:54:45;2.80;;;1.70;;
35074;SDS011;21260;34.984;32.490;2022-07-06T02:57:11;5.10;;;1.70;;
35074;SDS011;21260;34.984;32.490;2022-07-06T02:59:38;3.40;;;1.97;;
35074;SDS011;21260;34.984;32.490;2022-07-06T03:02:05;4.80;;;1.83;;
35074;SDS011;21260;34.984;32.490;2022-07-06T03:04:31;1.80;;;1.53;;
35074;SDS011;21260;34.984;32.490;2022-07-06T03:06:58;3.13;;;1.73;;
35074;SDS011;21260;34.984;32.490;2022-07-06T03:09:25;1.90;;;1.70;;
35074;SDS011;21260;34.984;32.490;2022-07-06T03:11:52;3.97;;;1.67;;
35074;SDS011;21260;34.984;32.490;2022-07-06T03:14:18;3.73;;;1.97;;
35074;SDS011;21260;34.984;32.490;2022-07-06T03:16:45;2.03;;;1.63;;
35074;SDS011;21260;34.984;32.490;2022-07-06T03:19:12;1.83;;;1.50;;
35074;SDS011;21260;34.984;32.490;2022-07-06T03:21:38;2.93;;;1.90;;
35074;SDS011;21260;34.984;32.490;2022-07-06T03:24:04;3.90;;;1.60;;
35074;SDS011;21260;34.984;32.490;2022-07-06T03:26:31;2.77;;;1.50;;
35074;SDS011;21260;34.984;32.490;2022-07-06T03:28:58;4.83;;;1.80;;
35074;SDS011;21260;34.984;32.490;2022-07-06T03:31:25;6.17;;;1.77;;
35074;SDS011;21260;34.984;32.490;2022-07-06T03:33:52;1.87;;;1.60;;
35074;SDS011;21260;34.984;32.490;2022-07-06T03:36:18;3.73;;;1.70;;
35074;SDS011;21260;34.984;32.490;2022-07-06T03:38:45;2.70;;;1.93;;
35074;SDS011;21260;34.984;32.490;2022-07-06T03:41:12;2.30;;;1.73;;
35074;SDS011;21260;34.984;32.490;2022-07-06T03:43:38;3.07;;;1.93;;
35074;SDS011;21260;34.984;32.490;2022-07-06T03:46:05;3.20;;;1.80;;
35074;SDS011;21260;34.984;32.490;2022-07-06T03:48:36;5.93;;;2.27;;
35074;SDS011;21260;34.984;32.490;2022-07-06T03:51:02;3.07;;;1.80;;
35074;SDS011;21260;34.984;32.490;2022-07-06T03:53:29;2.53;;;1.90;;
35074;SDS011;21260;34.984;32.490;2022-07-06T03:55:56;3.77;;;2.00;;
35074;SDS011;21260;34.984;32.490;2022-07-06T03:58:42;2.60;;;1.53;;
35074;SDS011;21260;34.984;32.490;2022-07-06T04:01:08;4.10;;;2.00;;
35074;SDS011;21260;34.984;32.490;2022-07-06T04:03:35;2.40;;;1.90;;
35074;SDS011;21260;34.984;32.490;2022-07-06T04:06:02;5.27;;;2.20;;
35074;SDS011;21260;34.984;32.490;2022-07-06T04:08:28;4.97;;;2.43;;
35074;SDS011;21260;34.984;32.490;2022-07-06T04:10:54;2.27;;;1.83;;
35074;SDS011;21260;34.984;32.490;2022-07-06T04:13:21;5.87;;;1.90;;
35074;SDS011;21260;34.984;32.490;2022-07-06T04:15:50;1.90;;;1.80;;
35074;SDS011;21260;34.984;32.490;2022-07-06T04:18:17;3.47;;;1.87;;
35074;SDS011;21260;34.984;32.490;2022-07-06T04:20:45;11.30;;;2.40;;
35074;SDS011;21260;34.984;32.490;2022-07-06T04:23:11;7.17;;;1.90;;
35074;SDS011;21260;34.984;32.490;2022-07-06T04:25:38;4.10;;;2.00;;
35074;SDS011;21260;34.984;32.490;2022-07-06T04:28:04;2.43;;;1.90;;
35074;SDS011;21260;34.984;32.490;2022-07-06T04:30:30;5.00;;;2.00;;
35074;SDS011;21260;34.984;32.490;2022-07-06T04:32:57;6.27;;;2.23;;
35074;SDS011;21260;34.984;32.490;2022-07-06T04:35:23;3.67;;;1.70;;
35074;SDS011;21260;34.984;32.490;2022-07-06T04:37:49;2.43;;;1.87;;
35074;SDS011;21260;34.984;32.490;2022-07-06T04:40:16;5.83;;;2.23;;
35074;SDS011;21260;34.984;32.490;2022-07-06T04:42:43;2.97;;;2.07;;
35074;SDS011;21260;34.984;32.490;2022-07-06T04:45:10;3.70;;;2.07;;
35074;SDS011;21260;34.984;32.490;2022-07-06T04:47:38;2.80;;;1.87;;
35074;SDS011;21260;34.984;32.490;2022-07-06T04:50:04;2.93;;;1.87;;
35074;SDS011;21260;34.984;32.490;2022-07-06T04:52:31;4.10;;;2.30;;
35074;SDS011;21260;34.984;32.490;2022-07-06T04:54:58;3.97;;;2.10;;
35074;SDS011;21260;34.984;32.490;2022-07-06T04:57:24;3.80;;;1.80;;
35074;SDS011;21260;34.984;32.490;2022-07-06T04:59:51;2.60;;;1.90;;
35074;SDS011;21260;34.984;32.490;2022-07-06T05:02:18;5.20;;;2.30;;
35074;SDS011;21260;34.984;32.490;2022-07-06T05:04:44;2.80;;;2.03;;
35074;SDS011;21260;34.984;32.490;2022-07-06T05:07:10;2.33;;;1.70;;
35074;SDS011;21260;34.984;32.490;2022-07-06T05:09:37;3.23;;;2.00;;
35074;SDS011;21260;34.984;32.490;2022-07-06T05:12:03;2.50;;;1.80;;
35074;SDS011;21260;34.984;32.490;2022-07-06T05:14:30;4.23;;;2.23;;
35074;SDS011;21260;34.984;32.490;2022-07-06T05:16:56;2.50;;;2.10;;
35074;SDS011;21260;34.984;32.490;2022-07-06T05:19:22;4.17;;;2.07;;
35074;SDS011;21260;34.984;32.490;2022-07-06T05:21:49;3.75;;;2.00;;
35074;SDS011;21260;34.984;32.490;2022-07-06T05:24:15;2.93;;;1.87;;
35074;SDS011;21260;34.984;32.490;2022-07-06T05:26:42;3.03;;;1.90;;
35074;SDS011;21260;34.984;32.490;2022-07-06T05:29:08;3.13;;;1.98;;
35074;SDS011;21260;34.984;32.490;2022-07-06T05:31:35;4.70;;;2.13;;
35074;SDS011;21260;34.984;32.490;2022-07-06T05:34:01;5.00;;;2.03;;
35074;SDS011;21260;34.984;32.490;2022-07-06T05:36:28;3.63;;;2.20;;
35074;SDS011;21260;34.984;32.490;2022-07-06T05:38:54;4.13;;;2.20;;
35074;SDS011;21260;34.984;32.490;2022-07-06T05:41:21;3.50;;;1.93;;
35074;SDS011;21260;34.984;32.490;2022-07-06T05:43:47;4.18;;;2.22;;
35074;SDS011;21260;34.984;32.490;2022-07-06T05:46:14;5.75;;;2.40;;
35074;SDS011;21260;34.984;32.490;2022-07-06T05:48:40;2.53;;;1.90;;
35074;SDS011;21260;34.984;32.490;2022-07-06T05:51:25;7.50;;;2.20;;
35074;SDS011;21260;34.984;32.490;2022-07-06T05:53:51;5.72;;;2.00;;
35074;SDS011;21260;34.984;32.490;2022-07-06T05:56:18;8.45;;;2.30;;
35074;SDS011;21260;34.984;32.490;2022-07-06T05:58:44;7.03;;;2.03;;
35074;SDS011;21260;34.984;32.490;2022-07-06T06:01:10;4.15;;;2.00;;
35074;SDS011;21260;34.984;32.490;2022-07-06T06:03:36;6.15;;;2.33;;
35074;SDS011;21260;34.984;32.490;2022-07-06T06:06:03;5.68;;;2.10;;
35074;SDS011;21260;34.984;32.490;2022-07-06T06:08:30;8.02;;;2.53;;
35074;SDS011;21260;34.984;32.490;2022-07-06T06:10:56;8.52;;;2.47;;
35074;SDS011;21260;34.984;32.490;2022-07-06T06:13:23;6.22;;;2.72;;
35074;SDS011;21260;34.984;32.490;2022-07-06T06:15:49;6.32;;;2.33;;
35074;SDS011;21260;34.984;32.490;2022-07-06T06:18:16;5.00;;;2.20;;
35074;SDS011;21260;34.984;32.490;2022-07-06T06:20:44;7.13;;;2.03;;
35074;SDS011;21260;34.984;32.490;2022-07-06T06:23:11;10.20;;;2.42;;
35074;SDS011;21260;34.984;32.490;2022-07-06T06:25:38;5.53;;;2.47;;
35074;SDS011;21260;34.984;32.490;2022-07-06T06:28:08;2.25;;;1.90;;
35074;SDS011;21260;34.984;32.490;2022-07-06T06:30:36;3.80;;;2.13;;
35074;SDS011;21260;34.984;32.490;2022-07-06T06:33:11;5.25;;;1.75;;
35074;SDS011;21260;34.984;32.490;2022-07-06T06:35:43;4.82;;;2.42;;
35074;SDS011;21260;34.984;32.490;2022-07-06T06:38:15;5.25;;;2.28;;
35074;SDS011;21260;34.984;32.490;2022-07-06T06:40:43;3.33;;;2.13;;
35074;SDS011;21260;34.984;32.490;2022-07-06T06:43:10;4.43;;;2.10;;
35074;SDS011;21260;34.984;32.490;2022-07-06T06:45:37;5.78;;;1.60;;
35074;SDS011;21260;34.984;32.490;2022-07-06T06:48:03;5.53;;;2.40;;
35074;SDS011;21260;34.984;32.490;2022-07-06T06:50:30;6.13;;;2.28;;
35074;SDS011;21260;34.984;32.490;2022-07-06T06:52:56;6.38;;;1.90;;
35074;SDS011;21260;34.984;32.490;2022-07-06T06:55:23;5.30;;;2.53;;
35074;SDS011;21260;34.984;32.490;2022-07-06T06:57:49;4.38;;;2.15;;
35074;SDS011;21260;34.984;32.490;2022-07-06T07:00:16;6.93;;;2.20;;
35074;SDS011;21260;34.984;32.490;2022-07-06T07:02:42;4.88;;;2.40;;
35074;SDS011;21260;34.984;32.490;2022-07-06T07:05:10;5.90;;;2.30;;
35074;SDS011;21260;34.984;32.490;2022-07-06T07:07:40;7.47;;;2.20;;
35074;SDS011;21260;34.984;32.490;2022-07-06T07:10:06;6.45;;;2.08;;
35074;SDS011;21260;34.984;32.490;2022-07-06T07:12:33;6.80;;;2.38;;
35074;SDS011;21260;34.984;32.490;2022-07-06T07:15:00;5.05;;;2.17;;
35074;SDS011;21260;34.984;32.490;2022-07-06T07:17:27;8.50;;;2.58;;
35074;SDS011;21260;34.984;32.490;2022-07-06T07:19:53;5.30;;;2.08;;
35074;SDS011;21260;34.984;32.490;2022-07-06T07:22:22;6.32;;;2.65;;
35074;SDS011;21260;34.984;32.490;2022-07-06T07:24:49;6.88;;;2.42;;
35074;SDS011;21260;34.984;32.490;2022-07-06T07:27:16;6.07;;;2.42;;
35074;SDS011;21260;34.984;32.490;2022-07-06T07:29:43;6.30;;;2.60;;
35074;SDS011;21260;34.984;32.490;2022-07-06T07:32:10;5.75;;;2.42;;
35074;SDS011;21260;34.984;32.490;2022-07-06T07:34:36;10.65;;;2.75;;
35074;SDS011;21260;34.984;32.490;2022-07-06T07:37:03;9.27;;;2.72;;
35074;SDS011;21260;34.984;32.490;2022-07-06T07:39:29;6.15;;;2.35;;
35074;SDS011;21260;34.984;32.490;2022-07-06T07:41:55;7.20;;;2.30;;
35074;SDS011;21260;34.984;32.490;2022-07-06T07:44:22;8.30;;;2.28;;
35074;SDS011;21260;34.984;32.490;2022-07-06T07:46:50;6.25;;;2.42;;
35074;SDS011;21260;34.984;32.490;2022-07-06T07:49:17;12.50;;;2.50;;
35074;SDS011;21260;34.984;32.490;2022-07-06T07:51:46;2.85;;;1.92;;
35074;SDS011;21260;34.984;32.490;2022-07-06T07:54:18;6.63;;;2.80;;
35074;SDS011;21260;34.984;32.490;2022-07-06T07:56:44;9.48;;;3.08;;
35074;SDS011;21260;34.984;32.490;2022-07-06T07:59:11;10.52;;;2.92;;
35074;SDS011;21260;34.984;32.490;2022-07-06T08:01:37;13.82;;;3.03;;
35074;SDS011;21260;34.984;32.490;2022-07-06T08:04:04;7.45;;;3.03;;
35074;SDS011;21260;34.984;32.490;2022-07-06T08:06:30;13.43;;;2.90;;
35074;SDS011;21260;34.984;32.490;2022-07-06T08:08:57;11.75;;;3.05;;
35074;SDS011;21260;34.984;32.490;2022-07-06T08:11:24;7.93;;;3.30;;
35074;SDS011;21260;34.984;32.490;2022-07-06T08:13:50;6.18;;;3.00;;
35074;SDS011;21260;34.984;32.490;2022-07-06T08:16:17;7.22;;;3.08;;
35074;SDS011;21260;34.984;32.490;2022-07-06T08:18:43;11.40;;;3.33;;
35074;SDS011;21260;34.984;32.490;2022-07-06T08:21:09;12.68;;;3.22;;
35074;SDS011;21260;34.984;32.490;2022-07-06T08:23:36;4.82;;;2.47;;
35074;SDS011;21260;34.984;32.490;2022-07-06T08:26:02;9.50;;;3.00;;
35074;SDS011;21260;34.984;32.490;2022-07-06T08:28:29;7.18;;;2.45;;
35074;SDS011;21260;34.984;32.490;2022-07-06T08:30:56;9.88;;;2.92;;
35074;SDS011;21260;34.984;32.490;2022-07-06T08:33:23;7.68;;;3.00;;
35074;SDS011;21260;34.984;32.490;2022-07-06T08:35:49;9.40;;;2.60;;
35074;SDS011;21260;34.984;32.490;2022-07-06T08:38:16;7.97;;;3.20;;
35074;SDS011;21260;34.984;32.490;2022-07-06T08:40:43;13.95;;;3.65;;
35074;SDS011;21260;34.984;32.490;2022-07-06T08:43:14;10.77;;;3.20;;
35074;SDS011;21260;34.984;32.490;2022-07-06T08:45:41;15.52;;;3.65;;
35074;SDS011;21260;34.984;32.490;2022-07-06T08:48:10;8.43;;;3.60;;
35074;SDS011;21260;34.984;32.490;2022-07-06T08:50:37;10.18;;;3.45;;
35074;SDS011;21260;34.984;32.490;2022-07-06T08:53:04;17.52;;;3.92;;
35074;SDS011;21260;34.984;32.490;2022-07-06T08:55:31;10.43;;;3.53;;
35074;SDS011;21260;34.984;32.490;2022-07-06T08:57:59;14.85;;;4.35;;
35074;SDS011;21260;34.984;32.490;2022-07-06T09:00:26;11.82;;;4.05;;
35074;SDS011;21260;34.984;32.490;2022-07-06T09:02:52;10.73;;;4.50;;
35074;SDS011;21260;34.984;32.490;2022-07-06T09:05:22;19.20;;;4.30;;
35074;SDS011;21260;34.984;32.490;2022-07-06T09:07:49;13.13;;;4.40;;
35074;SDS011;21260;34.984;32.490;2022-07-06T09:10:19;17.30;;;4.15;;
35074;SDS011;21260;34.984;32.490;2022-07-06T09:12:47;13.85;;;4.15;;
35074;SDS011;21260;34.984;32.490;2022-07-06T09:15:14;13.45;;;3.95;;
35074;SDS011;21260;34.984;32.490;2022-07-06T09:17:41;14.57;;;3.78;;
35074;SDS011;21260;34.984;32.490;2022-07-06T09:20:09;16.00;;;4.10;;
35074;SDS011;21260;34.984;32.490;2022-07-06T09:22:38;16.42;;;3.80;;
35074;SDS011;21260;34.984;32.490;2022-07-06T09:25:06;12.57;;;4.15;;
35074;SDS011;21260;34.984;32.490;2022-07-06T09:27:43;13.82;;;4.03;;
35074;SDS011;21260;34.984;32.490;2022-07-06T09:30:15;11.18;;;4.00;;
35074;SDS011;21260;34.984;32.490;2022-07-06T09:32:43;11.68;;;3.92;;
35074;SDS011;21260;34.984;32.490;2022-07-06T09:38:05;18.55;;;4.88;;
35074;SDS011;21260;34.984;32.490;2022-07-06T09:40:37;11.80;;;4.15;;
35074;SDS011;21260;34.984;32.490;2022-07-06T09:45:45;11.48;;;4.07;;
35074;SDS011;21260;34.984;32.490;2022-07-06T09:48:20;13.30;;;3.78;;
35074;SDS011;21260;34.984;32.490;2022-07-06T09:50:51;12.50;;;3.92;;
35074;SDS011;21260;34.984;32.490;2022-07-06T09:53:23;11.80;;;3.85;;
35074;SDS011;21260;34.984;32.490;2022-07-06T09:55:53;11.57;;;4.07;;
35074;SDS011;21260;34.984;32.490;2022-07-06T09:58:23;20.75;;;5.05;;
35074;SDS011;21260;34.984;32.490;2022-07-06T10:00:50;18.08;;;4.38;;
35074;SDS011;21260;34.984;32.490;2022-07-06T10:03:18;13.00;;;4.45;;
35074;SDS011;21260;34.984;32.490;2022-07-06T10:05:45;14.25;;;4.03;;
35074;SDS011;21260;34.984;32.490;2022-07-06T10:08:14;9.70;;;4.25;;
35074;SDS011;21260;34.984;32.490;2022-07-06T10:10:42;14.85;;;3.97;;
35074;SDS011;21260;34.984;32.490;2022-07-06T10:13:10;12.93;;;4.00;;
35074;SDS011;21260;34.984;32.490;2022-07-06T10:15:37;16.35;;;4.00;;
35074;SDS011;21260;34.984;32.490;2022-07-06T10:18:06;15.38;;;3.90;;
35074;SDS011;21260;34.984;32.490;2022-07-06T10:20:35;13.65;;;4.18;;
35074;SDS011;21260;34.984;32.490;2022-07-06T10:23:05;13.07;;;3.92;;
35074;SDS011;21260;34.984;32.490;2022-07-06T10:25:34;10.32;;;4.18;;
35074;SDS011;21260;34.984;32.490;2022-07-06T10:28:01;14.57;;;4.43;;
35074;SDS011;21260;34.984;32.490;2022-07-06T10:30:28;16.05;;;4.50;;
35074;SDS011;21260;34.984;32.490;2022-07-06T10:32:56;10.88;;;4.00;;
35074;SDS011;21260;34.984;32.490;2022-07-06T10:35:25;12.20;;;4.10;;
35074;SDS011;21260;34.984;32.490;2022-07-06T10:38:04;15.05;;;4.50;;
35074;SDS011;21260;34.984;32.490;2022-07-06T10:40:33;11.60;;;4.15;;
35074;SDS011;21260;34.984;32.490;2022-07-06T10:43:22;17.52;;;5.05;;
35074;SDS011;21260;34.984;32.490;2022-07-06T10:46:08;11.77;;;4.13;;
35074;SDS011;21260;34.984;32.490;2022-07-06T10:48:44;13.07;;;4.35;;
35074;SDS011;21260;34.984;32.490;2022-07-06T10:51:24;11.43;;;4.13;;
35074;SDS011;21260;34.984;32.490;2022-07-06T10:53:57;12.70;;;4.22;;
35074;SDS011;21260;34.984;32.490;2022-07-06T10:56:43;13.38;;;3.80;;
35074;SDS011;21260;34.984;32.490;2022-07-06T10:59:16;14.02;;;4.00;;
35074;SDS011;21260;34.984;32.490;2022-07-06T11:04:43;16.67;;;4.80;;
35074;SDS011;21260;34.984;32.490;2022-07-06T11:07:15;10.68;;;3.65;;
35074;SDS011;21260;34.984;32.490;2022-07-06T11:09:57;13.75;;;4.30;;
35074;SDS011;21260;34.984;32.490;2022-07-06T11:12:25;13.73;;;4.00;;
35074;SDS011;21260;34.984;32.490;2022-07-06T11:14:52;13.05;;;3.78;;
35074;SDS011;21260;34.984;32.490;2022-07-06T11:17:18;11.18;;;4.05;;
35074;SDS011;21260;34.984;32.490;2022-07-06T11:19:55;17.67;;;3.83;;
35074;SDS011;21260;34.984;32.490;2022-07-06T11:22:35;12.48;;;4.15;;
35074;SDS011;21260;34.984;32.490;2022-07-06T11:25:04;9.45;;;3.90;;
35074;SDS011;21260;34.984;32.490;2022-07-06T11:27:32;9.30;;;3.85;;
35074;SDS011;21260;34.984;32.490;2022-07-06T11:30:00;9.82;;;3.28;;
35074;SDS011;21260;34.984;32.490;2022-07-06T11:32:27;9.02;;;3.42;;
35074;SDS011;21260;34.984;32.490;2022-07-06T11:34:54;8.73;;;3.53;;
35074;SDS011;21260;34.984;32.490;2022-07-06T11:37:21;9.40;;;3.50;;
35074;SDS011;21260;34.984;32.490;2022-07-06T11:39:48;17.33;;;3.92;;
35074;SDS011;21260;34.984;32.490;2022-07-06T11:42:15;10.43;;;3.35;;
35074;SDS011;21260;34.984;32.490;2022-07-06T11:44:43;10.63;;;3.40;;
35074;SDS011;21260;34.984;32.490;2022-07-06T11:47:11;16.85;;;3.97;;
35074;SDS011;21260;34.984;32.490;2022-07-06T11:49:42;8.63;;;3.03;;
35074;SDS011;21260;34.984;32.490;2022-07-06T11:52:12;11.43;;;3.75;;
35074;SDS011;21260;34.984;32.490;2022-07-06T11:54:39;13.82;;;4.00;;
35074;SDS011;21260;34.984;32.490;2022-07-06T11:57:09;8.63;;;3.90;;
35074;SDS011;21260;34.984;32.490;2022-07-06T11:59:38;12.48;;;4.20;;
35074;SDS011;21260;34.984;32.490;2022-07-06T12:02:08;10.40;;;4.07;;
35074;SDS011;21260;34.984;32.490;2022-07-06T12:04:38;10.32;;;3.80;;
35074;SDS011;21260;34.984;32.490;2022-07-06T12:07:10;13.27;;;3.80;;
35074;SDS011;21260;34.984;32.490;2022-07-06T12:09:43;14.90;;;4.18;;
35074;SDS011;21260;34.984;32.490;2022-07-06T12:12:13;17.08;;;3.78;;
35074;SDS011;21260;34.984;32.490;2022-07-06T12:14:41;12.95;;;3.80;;
35074;SDS011;21260;34.984;32.490;2022-07-06T12:17:09;8.07;;;3.17;;
35074;SDS011;21260;34.984;32.490;2022-07-06T12:19:38;7.78;;;3.05;;
35074;SDS011;21260;34.984;32.490;2022-07-06T12:22:07;11.73;;;3.47;;
35074;SDS011;21260;34.984;32.490;2022-07-06T12:24:35;10.68;;;3.38;;
35074;SDS011;21260;34.984;32.490;2022-07-06T12:27:36;8.38;;;3.10;;
35074;SDS011;21260;34.984;32.490;2022-07-06T12:30:07;9.35;;;3.08;;
35074;SDS011;21260;34.984;32.490;2022-07-06T12:32:36;10.43;;;2.95;;
35074;SDS011;21260;34.984;32.490;2022-07-06T12:35:06;7.10;;;2.97;;
35074;SDS011;21260;34.984;32.490;2022-07-06T12:37:34;7.07;;;3.10;;
35074;SDS011;21260;34.984;32.490;2022-07-06T12:40:01;8.05;;;3.08;;
35074;SDS011;21260;34.984;32.490;2022-07-06T12:42:45;5.95;;;2.75;;
35074;SDS011;21260;34.984;32.490;2022-07-06T12:45:14;6.25;;;2.67;;
35074;SDS011;21260;34.984;32.490;2022-07-06T12:47:41;5.80;;;2.78;;
35074;SDS011;21260;34.984;32.490;2022-07-06T12:50:31;10.27;;;2.75;;
35074;SDS011;21260;34.984;32.490;2022-07-06T12:53:01;8.77;;;2.65;;
35074;SDS011;21260;34.984;32.490;2022-07-06T12:55:29;14.73;;;3.15;;
35074;SDS011;21260;34.984;32.490;2022-07-06T12:57:57;28.75;;;4.30;;
35074;SDS011;21260;34.984;32.490;2022-07-06T13:00:24;15.07;;;3.35;;
35074;SDS011;21260;34.984;32.490;2022-07-06T13:02:52;8.68;;;3.13;;
35074;SDS011;21260;34.984;32.490;2022-07-06T13:05:23;10.02;;;2.83;;
35074;SDS011;21260;34.984;32.490;2022-07-06T13:07:56;7.75;;;2.85;;
35074;SDS011;21260;34.984;32.490;2022-07-06T13:10:23;5.72;;;2.67;;
35074;SDS011;21260;34.984;32.490;2022-07-06T13:12:51;7.00;;;2.20;;
35074;SDS011;21260;34.984;32.490;2022-07-06T13:15:17;8.57;;;2.25;;
35074;SDS011;21260;34.984;32.490;2022-07-06T13:17:44;5.03;;;2.10;;
35074;SDS011;21260;34.984;32.490;2022-07-06T13:20:11;5.13;;;2.42;;
35074;SDS011;21260;34.984;32.490;2022-07-06T13:22:39;7.30;;;2.40;;
35074;SDS011;21260;34.984;32.490;2022-07-06T13:25:06;7.15;;;2.17;;
35074;SDS011;21260;34.984;32.490;2022-07-06T13:27:33;5.57;;;2.10;;
35074;SDS011;21260;34.984;32.490;2022-07-06T13:29:59;5.50;;;2.22;;
35074;SDS011;21260;34.984;32.490;2022-07-06T13:32:31;8.43;;;2.40;;
35074;SDS011;21260;34.984;32.490;2022-07-06T13:34:58;7.55;;;2.58;;
35074;SDS011;21260;34.984;32.490;2022-07-06T13:37:25;5.30;;;2.30;;
35074;SDS011;21260;34.984;32.490;2022-07-06T13:39:51;4.05;;;2.45;;
35074;SDS011;21260;34.984;32.490;2022-07-06T13:42:18;9.85;;;2.90;;
35074;SDS011;21260;34.984;32.490;2022-07-06T13:44:44;9.30;;;2.50;;
35074;SDS011;21260;34.984;32.490;2022-07-06T13:47:11;5.40;;;2.58;;
35074;SDS011;21260;34.984;32.490;2022-07-06T13:49:37;9.25;;;2.63;;
35074;SDS011;21260;34.984;32.490;2022-07-06T13:52:04;6.65;;;2.58;;
35074;SDS011;21260;34.984;32.490;2022-07-06T13:54:32;7.60;;;3.08;;
35074;SDS011;21260;34.984;32.490;2022-07-06T13:57:03;8.02;;;2.85;;
35074;SDS011;21260;34.984;32.490;2022-07-06T13:59:30;7.90;;;2.72;;
35074;SDS011;21260;34.984;32.490;2022-07-06T14:01:57;5.10;;;2.65;;
35074;SDS011;21260;34.984;32.490;2022-07-06T14:04:23;20.23;;;3.60;;
35074;SDS011;21260;34.984;32.490;2022-07-06T14:06:51;11.18;;;3.40;;
35074;SDS011;21260;34.984;32.490;2022-07-06T14:09:17;4.57;;;2.53;;
35074;SDS011;21260;34.984;32.490;2022-07-06T14:11:44;6.43;;;2.88;;
35074;SDS011;21260;34.984;32.490;2022-07-06T14:14:11;9.75;;;3.03;;
35074;SDS011;21260;34.984;32.490;2022-07-06T14:16:37;8.75;;;3.22;;
35074;SDS011;21260;34.984;32.490;2022-07-06T14:19:05;6.15;;;2.80;;
35074;SDS011;21260;34.984;32.490;2022-07-06T14:21:31;9.43;;;2.47;;
35074;SDS011;21260;34.984;32.490;2022-07-06T14:23:59;7.57;;;2.53;;
35074;SDS011;21260;34.984;32.490;2022-07-06T14:26:28;5.80;;;2.80;;
35074;SDS011;21260;34.984;32.490;2022-07-06T14:28:55;8.82;;;3.00;;
35074;SDS011;21260;34.984;32.490;2022-07-06T14:31:21;8.38;;;3.00;;
35074;SDS011;21260;34.984;32.490;2022-07-06T14:33:50;8.32;;;2.95;;
35074;SDS011;21260;34.984;32.490;2022-07-06T14:36:17;10.45;;;2.75;;
35074;SDS011;21260;34.984;32.490;2022-07-06T14:38:45;16.90;;;3.53;;
35074;SDS011;21260;34.984;32.490;2022-07-06T14:41:12;10.23;;;3.88;;
35074;SDS011;21260;34.984;32.490;2022-07-06T14:43:39;8.52;;;2.92;;
35074;SDS011;21260;34.984;32.490;2022-07-06T14:46:05;5.93;;;2.38;;